sensor_id;sensor_type;location;lat;lon;timestamp;noise_LAeq;noise_LA_min;noise_LA_max;noise_LA01;noise_LA95
41518;Laerm;27249;48.094;-1.690;2023-08-08T00:00:17;46.52;41.06;61.61;;
41518;Laerm;27249;48.094;-1.690;2023-08-08T00:02:43;48.94;41.38;61.94;;
41518;Laerm;27249;48.094;-1.690;2023-08-08T00:05:08;45.83;41.22;65.32;;
41518;Laerm;27249;48.094;-1.690;2023-08-08T00:07:34;45.87;40.03;56.19;;
41518;Laerm;27249;48.094;-1.690;2023-08-08T00:09:59;46.42;40.62;61.41;;
41518;Laerm;27249;48.094;-1.690;2023-08-08T00:12:24;47.91;39.58;58.12;;
41518;Laerm;27249;48.094;-1.690;2023-08-08T00:14:49;46.04;40.89;58.01;;
41518;Laerm;27249;48.094;-1.690;2023-08-08T00:17:15;43.82;40.13;52.96;;
41518;Laerm;27249;48.094;-1.690;2023-08-08T00:19:40;42.94;40.23;44.62;;
41518;Laerm;27249;48.094;-1.690;2023-08-08T00:22:05;43.68;39.58;53.01;;
41518;Laerm;27249;48.094;-1.690;2023-08-08T00:24:31;43.04;40.23;51.22;;
41518;Laerm;27249;48.094;-1.690;2023-08-08T00:26:56;45.09;40.80;56.18;;
41518;Laerm;27249;48.094;-1.690;2023-08-08T00:29:22;48.31;40.98;61.76;;
41518;Laerm;27249;48.094;-1.690;2023-08-08T00:31:47;42.98;40.03;44.73;;
41518;Laerm;27249;48.094;-1.690;2023-08-08T00:34:12;42.86;39.58;53.71;;
41518;Laerm;27249;48.094;-1.690;2023-08-08T00:36:37;45.31;39.58;57.07;;
41518;Laerm;27249;48.094;-1.690;2023-08-08T00:39:03;42.92;39.58;45.39;;
41518;Laerm;27249;48.094;-1.690;2023-08-08T00:41:28;48.42;40.71;66.27;;
41518;Laerm;27249;48.094;-1.690;2023-08-08T00:43:53;43.15;40.53;45.89;;
41518;Laerm;27249;48.094;-1.690;2023-08-08T00:46:19;45.30;40.62;58.33;;
41518;Laerm;27249;48.094;-1.690;2023-08-08T00:48:45;47.90;40.80;59.82;;
41518;Laerm;27249;48.094;-1.690;2023-08-08T00:51:11;43.29;41.14;44.80;;
41518;Laerm;27249;48.094;-1.690;2023-08-08T00:53:36;43.18;40.62;45.86;;
41518;Laerm;27249;48.094;-1.690;2023-08-08T00:56:01;45.14;39.92;56.87;;
41518;Laerm;27249;48.094;-1.690;2023-08-08T00:58:27;44.89;39.70;56.69;;
41518;Laerm;27249;48.094;-1.690;2023-08-08T01:00:54;48.01;40.23;61.09;;
41518;Laerm;27249;48.094;-1.690;2023-08-08T01:03:21;43.41;40.03;68.19;;
41518;Laerm;27249;48.094;-1.690;2023-08-08T01:06:08;42.93;39.70;49.04;;
41518;Laerm;27249;48.094;-1.690;2023-08-08T01:08:39;43.06;40.33;52.24;;
41518;Laerm;27249;48.094;-1.690;2023-08-08T01:11:07;43.06;40.53;55.56;;
41518;Laerm;27249;48.094;-1.690;2023-08-08T01:13:32;44.47;40.79;54.61;;
41518;Laerm;27249;48.094;-1.690;2023-08-08T01:15:58;43.05;39.92;45.23;;
41518;Laerm;27249;48.094;-1.690;2023-08-08T01:18:24;47.08;40.43;56.83;;
41518;Laerm;27249;48.094;-1.690;2023-08-08T01:20:50;45.21;40.71;57.05;;
41518;Laerm;27249;48.094;-1.690;2023-08-08T01:26:12;44.22;39.21;54.27;;
41518;Laerm;27249;48.094;-1.690;2023-08-08T01:28:37;44.36;40.53;53.37;;
41518;Laerm;27249;48.094;-1.690;2023-08-08T01:31:03;48.95;40.33;61.50;;
41518;Laerm;27249;48.094;-1.690;2023-08-08T01:33:28;43.35;40.43;47.54;;
41518;Laerm;27249;48.094;-1.690;2023-08-08T01:35:54;46.47;40.03;56.49;;
41518;Laerm;27249;48.094;-1.690;2023-08-08T01:38:26;42.97;39.92;52.84;;
41518;Laerm;27249;48.094;-1.690;2023-08-08T01:40:55;47.06;40.80;60.16;;
41518;Laerm;27249;48.094;-1.690;2023-08-08T01:43:24;49.19;40.71;61.02;;
41518;Laerm;27249;48.094;-1.690;2023-08-08T01:45:50;47.79;39.92;60.07;;
41518;Laerm;27249;48.094;-1.690;2023-08-08T01:48:15;45.07;39.21;54.73;;
41518;Laerm;27249;48.094;-1.690;2023-08-08T01:50:40;46.35;40.62;57.82;;
41518;Laerm;27249;48.094;-1.690;2023-08-08T01:53:06;44.32;40.23;52.32;;
41518;Laerm;27249;48.094;-1.690;2023-08-08T01:55:31;42.95;39.81;48.84;;
41518;Laerm;27249;48.094;-1.690;2023-08-08T01:57:56;46.49;40.80;61.41;;
41518;Laerm;27249;48.094;-1.690;2023-08-08T02:00:21;43.03;39.70;47.09;;
41518;Laerm;27249;48.094;-1.690;2023-08-08T02:02:47;46.68;40.80;58.45;;
41518;Laerm;27249;48.094;-1.690;2023-08-08T02:05:12;43.10;40.98;46.45;;
41518;Laerm;27249;48.094;-1.690;2023-08-08T02:07:37;49.29;40.89;60.20;;
41518;Laerm;27249;48.094;-1.690;2023-08-08T02:10:03;44.07;41.46;51.76;;
41518;Laerm;27249;48.094;-1.690;2023-08-08T02:12:28;47.74;40.89;60.15;;
41518;Laerm;27249;48.094;-1.690;2023-08-08T02:14:55;44.83;39.99;57.60;;
41518;Laerm;27249;48.094;-1.690;2023-08-08T02:17:20;48.54;40.43;59.81;;
41518;Laerm;27249;48.094;-1.690;2023-08-08T02:19:46;45.38;40.89;57.08;;
41518;Laerm;27249;48.094;-1.690;2023-08-08T02:22:11;45.43;41.48;53.06;;
41518;Laerm;27249;48.094;-1.690;2023-08-08T02:24:36;47.44;40.33;60.29;;
41518;Laerm;27249;48.094;-1.690;2023-08-08T02:27:01;45.74;40.62;55.94;;
41518;Laerm;27249;48.094;-1.690;2023-08-08T02:29:27;44.04;41.06;53.90;;
41518;Laerm;27249;48.094;-1.690;2023-08-08T02:31:52;48.35;41.14;59.61;;
41518;Laerm;27249;48.094;-1.690;2023-08-08T02:34:17;43.01;39.21;49.19;;
41518;Laerm;27249;48.094;-1.690;2023-08-08T02:36:42;45.02;40.71;55.67;;
41518;Laerm;27249;48.094;-1.690;2023-08-08T02:39:08;48.60;40.33;60.70;;
41518;Laerm;27249;48.094;-1.690;2023-08-08T02:41:33;52.23;40.89;68.19;;
41518;Laerm;27249;48.094;-1.690;2023-08-08T02:43:58;46.62;40.62;59.65;;
41518;Laerm;27249;48.094;-1.690;2023-08-08T02:46:23;49.84;40.80;61.63;;
41518;Laerm;27249;48.094;-1.690;2023-08-08T02:48:48;46.97;40.53;59.90;;
41518;Laerm;27249;48.094;-1.690;2023-08-08T02:51:15;51.84;40.89;64.35;;
41518;Laerm;27249;48.094;-1.690;2023-08-08T02:53:40;44.81;41.06;58.92;;
41518;Laerm;27249;48.094;-1.690;2023-08-08T02:56:05;45.76;41.22;55.62;;
41518;Laerm;27249;48.094;-1.690;2023-08-08T02:58:30;43.70;40.98;50.88;;
41518;Laerm;27249;48.094;-1.690;2023-08-08T03:00:56;44.73;40.53;54.78;;
41518;Laerm;27249;48.094;-1.690;2023-08-08T03:03:21;46.46;40.98;56.42;;
41518;Laerm;27249;48.094;-1.690;2023-08-08T03:05:46;46.40;41.06;56.79;;
41518;Laerm;27249;48.094;-1.690;2023-08-08T03:08:11;42.99;39.46;45.17;;
41518;Laerm;27249;48.094;-1.690;2023-08-08T03:10:37;50.84;40.53;64.44;;
41518;Laerm;27249;48.094;-1.690;2023-08-08T03:13:02;48.63;40.98;67.73;;
41518;Laerm;27249;48.094;-1.690;2023-08-08T03:15:27;50.40;41.30;61.73;;
41518;Laerm;27249;48.094;-1.690;2023-08-08T03:17:52;48.81;41.46;60.81;;
41518;Laerm;27249;48.094;-1.690;2023-08-08T03:20:17;47.35;41.46;58.70;;
41518;Laerm;27249;48.094;-1.690;2023-08-08T03:22:43;48.95;41.75;60.06;;
41518;Laerm;27249;48.094;-1.690;2023-08-08T03:25:08;49.00;41.38;63.51;;
41518;Laerm;27249;48.094;-1.690;2023-08-08T03:27:34;49.44;41.06;61.36;;
41518;Laerm;27249;48.094;-1.690;2023-08-08T03:30:05;47.14;41.46;61.40;;
41518;Laerm;27249;48.094;-1.690;2023-08-08T03:32:31;49.85;41.53;62.40;;
41518;Laerm;27249;48.094;-1.690;2023-08-08T03:34:56;43.27;40.62;56.56;;
41518;Laerm;27249;48.094;-1.690;2023-08-08T03:37:21;49.65;41.46;61.97;;
41518;Laerm;27249;48.094;-1.690;2023-08-08T03:39:46;47.89;40.23;58.57;;
41518;Laerm;27249;48.094;-1.690;2023-08-08T03:42:12;53.63;41.68;64.30;;
41518;Laerm;27249;48.094;-1.690;2023-08-08T03:44:37;50.32;41.14;64.25;;
41518;Laerm;27249;48.094;-1.690;2023-08-08T03:47:02;48.56;42.03;59.75;;
41518;Laerm;27249;48.094;-1.690;2023-08-08T03:49:27;47.39;41.46;64.17;;
41518;Laerm;27249;48.094;-1.690;2023-08-08T03:51:53;49.01;41.46;69.11;;
41518;Laerm;27249;48.094;-1.690;2023-08-08T03:54:18;51.86;42.22;60.64;;
41518;Laerm;27249;48.094;-1.690;2023-08-08T03:56:43;50.62;40.89;65.79;;
41518;Laerm;27249;48.094;-1.690;2023-08-08T03:59:08;44.07;41.14;52.29;;
41518;Laerm;27249;48.094;-1.690;2023-08-08T04:01:34;53.12;41.22;71.28;;
41518;Laerm;27249;48.094;-1.690;2023-08-08T04:04:00;50.15;42.24;65.47;;
41518;Laerm;27249;48.094;-1.690;2023-08-08T04:06:25;51.63;41.14;68.56;;
41518;Laerm;27249;48.094;-1.690;2023-08-08T04:08:50;49.88;40.33;63.75;;
41518;Laerm;27249;48.094;-1.690;2023-08-08T04:11:16;53.19;41.89;67.47;;
41518;Laerm;27249;48.094;-1.690;2023-08-08T04:13:41;52.80;42.29;70.27;;
41518;Laerm;27249;48.094;-1.690;2023-08-08T04:16:06;52.08;40.62;69.15;;
41518;Laerm;27249;48.094;-1.690;2023-08-08T04:18:31;55.32;42.03;71.86;;
41518;Laerm;27249;48.094;-1.690;2023-08-08T04:20:57;51.15;41.75;65.78;;
41518;Laerm;27249;48.094;-1.690;2023-08-08T04:23:22;53.62;42.59;66.89;;
41518;Laerm;27249;48.094;-1.690;2023-08-08T04:25:50;49.82;42.06;66.95;;
41518;Laerm;27249;48.094;-1.690;2023-08-08T04:28:15;53.95;41.89;62.42;;
41518;Laerm;27249;48.094;-1.690;2023-08-08T04:30:41;50.49;43.09;65.13;;
41518;Laerm;27249;48.094;-1.690;2023-08-08T04:33:06;52.47;42.22;68.97;;
41518;Laerm;27249;48.094;-1.690;2023-08-08T04:35:31;56.08;42.59;68.92;;
41518;Laerm;27249;48.094;-1.690;2023-08-08T04:37:56;54.00;41.89;67.73;;
41518;Laerm;27249;48.094;-1.690;2023-08-08T04:40:22;55.89;44.23;76.04;;
41518;Laerm;27249;48.094;-1.690;2023-08-08T04:42:47;52.80;42.82;64.94;;
41518;Laerm;27249;48.094;-1.690;2023-08-08T04:45:12;52.19;43.09;66.12;;
41518;Laerm;27249;48.094;-1.690;2023-08-08T04:47:38;50.07;42.82;64.19;;
41518;Laerm;27249;48.094;-1.690;2023-08-08T04:50:03;51.57;41.96;63.68;;
41518;Laerm;27249;48.094;-1.690;2023-08-08T04:52:28;50.95;42.35;65.28;;
41518;Laerm;27249;48.094;-1.690;2023-08-08T04:54:53;51.23;42.22;64.49;;
41518;Laerm;27249;48.094;-1.690;2023-08-08T04:57:19;51.33;43.19;64.52;;
41518;Laerm;27249;48.094;-1.690;2023-08-08T04:59:44;46.64;42.09;59.57;;
41518;Laerm;27249;48.094;-1.690;2023-08-08T05:02:09;58.22;42.93;70.61;;
41518;Laerm;27249;48.094;-1.690;2023-08-08T05:04:34;54.04;44.19;63.36;;
41518;Laerm;27249;48.094;-1.690;2023-08-08T05:07:00;52.84;44.76;69.89;;
41518;Laerm;27249;48.094;-1.690;2023-08-08T05:09:25;52.43;44.07;61.84;;
41518;Laerm;27249;48.094;-1.690;2023-08-08T05:11:51;56.18;43.34;69.15;;
41518;Laerm;27249;48.094;-1.690;2023-08-08T05:14:16;59.00;44.43;74.85;;
41518;Laerm;27249;48.094;-1.690;2023-08-08T05:16:42;53.62;42.88;70.39;;
41518;Laerm;27249;48.094;-1.690;2023-08-08T05:19:07;54.57;44.87;67.47;;
41518;Laerm;27249;48.094;-1.690;2023-08-08T05:21:33;53.59;44.90;65.37;;
41518;Laerm;27249;48.094;-1.690;2023-08-08T05:23:59;55.56;44.54;70.71;;
41518;Laerm;27249;48.094;-1.690;2023-08-08T05:26:24;54.06;43.34;64.76;;
41518;Laerm;27249;48.094;-1.690;2023-08-08T05:28:49;54.39;44.73;65.14;;
41518;Laerm;27249;48.094;-1.690;2023-08-08T05:31:15;54.57;44.76;67.67;;
41518;Laerm;27249;48.094;-1.690;2023-08-08T05:33:40;55.14;44.80;72.57;;
41518;Laerm;27249;48.094;-1.690;2023-08-08T05:36:06;55.92;43.77;67.23;;
41518;Laerm;27249;48.094;-1.690;2023-08-08T05:38:31;56.28;47.06;67.26;;
41518;Laerm;27249;48.094;-1.690;2023-08-08T05:40:56;56.27;45.77;65.32;;
41518;Laerm;27249;48.094;-1.690;2023-08-08T05:43:22;54.52;44.47;61.08;;
41518;Laerm;27249;48.094;-1.690;2023-08-08T05:45:47;55.20;44.94;63.28;;
41518;Laerm;27249;48.094;-1.690;2023-08-08T05:48:12;54.86;45.17;63.15;;
41518;Laerm;27249;48.094;-1.690;2023-08-08T05:50:38;54.69;45.23;64.10;;
41518;Laerm;27249;48.094;-1.690;2023-08-08T05:53:03;55.20;45.04;66.52;;
41518;Laerm;27249;48.094;-1.690;2023-08-08T05:55:29;52.66;44.69;59.19;;
41518;Laerm;27249;48.094;-1.690;2023-08-08T05:57:54;56.16;46.62;66.06;;
41518;Laerm;27249;48.094;-1.690;2023-08-08T06:00:19;56.07;44.89;66.47;;
41518;Laerm;27249;48.094;-1.690;2023-08-08T06:02:44;53.29;46.40;60.01;;
41518;Laerm;27249;48.094;-1.690;2023-08-08T06:05:10;55.51;47.61;63.59;;
41518;Laerm;27249;48.094;-1.690;2023-08-08T06:07:35;55.96;45.11;74.88;;
41518;Laerm;27249;48.094;-1.690;2023-08-08T06:10:01;54.37;44.23;64.98;;
41518;Laerm;27249;48.094;-1.690;2023-08-08T06:12:26;54.12;44.73;65.96;;
41518;Laerm;27249;48.094;-1.690;2023-08-08T06:14:51;58.00;49.08;69.94;;
41518;Laerm;27249;48.094;-1.690;2023-08-08T06:17:16;59.39;45.04;74.08;;
41518;Laerm;27249;48.094;-1.690;2023-08-08T06:19:41;52.67;43.58;65.27;;
41518;Laerm;27249;48.094;-1.690;2023-08-08T06:22:07;56.08;45.66;64.24;;
41518;Laerm;27249;48.094;-1.690;2023-08-08T06:24:32;55.05;47.67;63.04;;
41518;Laerm;27249;48.094;-1.690;2023-08-08T06:26:57;54.39;46.38;64.01;;
41518;Laerm;27249;48.094;-1.690;2023-08-08T06:29:22;56.35;45.14;69.22;;
41518;Laerm;27249;48.094;-1.690;2023-08-08T06:31:48;55.35;45.04;65.01;;
41518;Laerm;27249;48.094;-1.690;2023-08-08T06:34:13;55.12;48.28;63.85;;
41518;Laerm;27249;48.094;-1.690;2023-08-08T06:36:38;55.35;45.94;66.04;;
41518;Laerm;27249;48.094;-1.690;2023-08-08T06:39:04;55.92;45.66;76.60;;
41518;Laerm;27249;48.094;-1.690;2023-08-08T06:41:30;55.60;44.73;62.22;;
41518;Laerm;27249;48.094;-1.690;2023-08-08T06:43:56;55.80;46.45;63.27;;
41518;Laerm;27249;48.094;-1.690;2023-08-08T06:46:21;54.89;45.66;68.43;;
41518;Laerm;27249;48.094;-1.690;2023-08-08T06:48:46;55.97;46.71;67.56;;
41518;Laerm;27249;48.094;-1.690;2023-08-08T06:51:12;55.46;47.00;62.42;;
41518;Laerm;27249;48.094;-1.690;2023-08-08T06:53:37;53.57;44.31;70.01;;
41518;Laerm;27249;48.094;-1.690;2023-08-08T06:56:02;53.05;45.04;66.14;;
41518;Laerm;27249;48.094;-1.690;2023-08-08T06:58:27;55.97;46.30;65.38;;
41518;Laerm;27249;48.094;-1.690;2023-08-08T07:00:53;55.48;44.15;66.42;;
41518;Laerm;27249;48.094;-1.690;2023-08-08T07:03:18;56.52;43.39;69.28;;
41518;Laerm;27249;48.094;-1.690;2023-08-08T07:05:43;51.96;43.72;64.31;;
41518;Laerm;27249;48.094;-1.690;2023-08-08T07:08:08;65.37;45.27;84.58;;
41518;Laerm;27249;48.094;-1.690;2023-08-08T07:10:34;53.81;44.15;65.58;;
41518;Laerm;27249;48.094;-1.690;2023-08-08T07:12:59;53.84;42.88;68.22;;
41518;Laerm;27249;48.094;-1.690;2023-08-08T07:15:24;55.13;47.46;64.22;;
41518;Laerm;27249;48.094;-1.690;2023-08-08T07:17:50;53.83;46.07;72.70;;
41518;Laerm;27249;48.094;-1.690;2023-08-08T07:20:15;54.14;45.60;65.11;;
41518;Laerm;27249;48.094;-1.690;2023-08-08T07:22:40;57.17;49.45;69.26;;
41518;Laerm;27249;48.094;-1.690;2023-08-08T07:25:06;60.26;45.42;78.34;;
41518;Laerm;27249;48.094;-1.690;2023-08-08T07:27:31;57.45;47.50;65.00;;
41518;Laerm;27249;48.094;-1.690;2023-08-08T07:29:56;54.74;44.11;61.56;;
41518;Laerm;27249;48.094;-1.690;2023-08-08T07:32:21;55.15;44.73;63.97;;
41518;Laerm;27249;48.094;-1.690;2023-08-08T07:34:47;57.35;43.81;69.00;;
41518;Laerm;27249;48.094;-1.690;2023-08-08T07:37:13;54.96;45.11;68.93;;
41518;Laerm;27249;48.094;-1.690;2023-08-08T07:39:38;54.07;44.97;62.59;;
41518;Laerm;27249;48.094;-1.690;2023-08-08T07:42:03;54.73;46.40;65.78;;
41518;Laerm;27249;48.094;-1.690;2023-08-08T07:44:29;55.22;45.14;67.10;;
41518;Laerm;27249;48.094;-1.690;2023-08-08T07:46:54;54.58;46.57;64.01;;
41518;Laerm;27249;48.094;-1.690;2023-08-08T07:49:19;55.40;46.18;66.01;;
41518;Laerm;27249;48.094;-1.690;2023-08-08T07:51:44;53.52;46.71;61.05;;
41518;Laerm;27249;48.094;-1.690;2023-08-08T07:54:09;54.67;44.76;62.14;;
41518;Laerm;27249;48.094;-1.690;2023-08-08T07:56:35;55.57;46.80;63.20;;
41518;Laerm;27249;48.094;-1.690;2023-08-08T07:59:01;54.01;45.33;61.66;;
41518;Laerm;27249;48.094;-1.690;2023-08-08T08:01:26;55.72;44.73;69.65;;
41518;Laerm;27249;48.094;-1.690;2023-08-08T08:03:52;55.02;48.08;68.02;;
41518;Laerm;27249;48.094;-1.690;2023-08-08T08:06:17;53.94;44.80;66.98;;
41518;Laerm;27249;48.094;-1.690;2023-08-08T08:08:42;54.92;44.94;64.84;;
41518;Laerm;27249;48.094;-1.690;2023-08-08T08:11:07;53.31;45.33;60.19;;
41518;Laerm;27249;48.094;-1.690;2023-08-08T08:13:33;55.19;45.94;63.41;;
41518;Laerm;27249;48.094;-1.690;2023-08-08T08:15:58;58.83;45.94;76.32;;
41518;Laerm;27249;48.094;-1.690;2023-08-08T08:18:23;52.79;46.25;63.17;;
41518;Laerm;27249;48.094;-1.690;2023-08-08T08:20:48;52.96;44.94;61.19;;
41518;Laerm;27249;48.094;-1.690;2023-08-08T08:23:13;54.72;48.40;69.09;;
41518;Laerm;27249;48.094;-1.690;2023-08-08T08:25:39;52.91;45.80;60.53;;
41518;Laerm;27249;48.094;-1.690;2023-08-08T08:28:04;52.66;45.14;66.57;;
41518;Laerm;27249;48.094;-1.690;2023-08-08T08:30:29;53.41;46.02;66.56;;
41518;Laerm;27249;48.094;-1.690;2023-08-08T08:32:55;53.41;44.15;63.32;;
41518;Laerm;27249;48.094;-1.690;2023-08-08T08:35:21;53.66;46.07;68.08;;
41518;Laerm;27249;48.094;-1.690;2023-08-08T08:37:47;53.19;43.19;67.60;;
41518;Laerm;27249;48.094;-1.690;2023-08-08T08:40:12;55.42;46.07;64.15;;
41518;Laerm;27249;48.094;-1.690;2023-08-08T08:42:37;54.28;45.99;62.81;;
41518;Laerm;27249;48.094;-1.690;2023-08-08T08:45:04;53.73;44.69;66.34;;
41518;Laerm;27249;48.094;-1.690;2023-08-08T08:47:30;53.86;47.50;66.40;;
41518;Laerm;27249;48.094;-1.690;2023-08-08T08:49:56;53.75;46.43;61.02;;
41518;Laerm;27249;48.094;-1.690;2023-08-08T08:52:22;55.43;46.57;61.16;;
41518;Laerm;27249;48.094;-1.690;2023-08-08T08:54:50;55.34;46.30;65.46;;
41518;Laerm;27249;48.094;-1.690;2023-08-08T08:57:15;56.41;47.28;67.80;;
41518;Laerm;27249;48.094;-1.690;2023-08-08T08:59:40;55.42;48.55;72.59;;
41518;Laerm;27249;48.094;-1.690;2023-08-08T09:02:05;54.76;46.45;69.87;;
41518;Laerm;27249;48.094;-1.690;2023-08-08T09:04:31;57.57;48.43;72.26;;
41518;Laerm;27249;48.094;-1.690;2023-08-08T09:06:57;55.49;49.15;63.58;;
41518;Laerm;27249;48.094;-1.690;2023-08-08T09:09:23;54.30;47.59;65.64;;
41518;Laerm;27249;48.094;-1.690;2023-08-08T09:11:49;55.30;48.90;62.25;;
41518;Laerm;27249;48.094;-1.690;2023-08-08T09:14:18;54.18;46.57;60.77;;
41518;Laerm;27249;48.094;-1.690;2023-08-08T09:16:44;55.51;47.91;65.27;;
41518;Laerm;27249;48.094;-1.690;2023-08-08T09:19:10;54.26;47.96;59.13;;
41518;Laerm;27249;48.094;-1.690;2023-08-08T09:21:36;56.80;47.68;68.50;;
41518;Laerm;27249;48.094;-1.690;2023-08-08T09:24:01;54.52;47.65;63.26;;
41518;Laerm;27249;48.094;-1.690;2023-08-08T09:26:27;54.43;46.15;62.12;;
41518;Laerm;27249;48.094;-1.690;2023-08-08T09:28:53;53.52;47.38;62.11;;
41518;Laerm;27249;48.094;-1.690;2023-08-08T09:31:18;56.59;46.25;69.80;;
41518;Laerm;27249;48.094;-1.690;2023-08-08T09:33:43;54.72;46.71;61.50;;
41518;Laerm;27249;48.094;-1.690;2023-08-08T09:36:13;52.49;45.39;60.95;;
41518;Laerm;27249;48.094;-1.690;2023-08-08T09:38:38;53.74;45.04;63.74;;
41518;Laerm;27249;48.094;-1.690;2023-08-08T09:41:04;55.97;46.93;74.61;;
41518;Laerm;27249;48.094;-1.690;2023-08-08T09:43:29;54.61;46.48;63.61;;
41518;Laerm;27249;48.094;-1.690;2023-08-08T09:45:55;54.85;45.54;65.94;;
41518;Laerm;27249;48.094;-1.690;2023-08-08T09:48:20;55.67;47.91;64.10;;
41518;Laerm;27249;48.094;-1.690;2023-08-08T09:50:46;55.65;45.57;72.79;;
41518;Laerm;27249;48.094;-1.690;2023-08-08T09:53:11;55.21;46.71;65.84;;
41518;Laerm;27249;48.094;-1.690;2023-08-08T09:55:37;54.61;48.21;61.07;;
41518;Laerm;27249;48.094;-1.690;2023-08-08T09:58:02;54.88;45.42;63.43;;
41518;Laerm;27249;48.094;-1.690;2023-08-08T10:00:27;53.91;46.05;61.65;;
41518;Laerm;27249;48.094;-1.690;2023-08-08T10:02:55;55.10;46.13;63.24;;
41518;Laerm;27249;48.094;-1.690;2023-08-08T10:05:20;54.96;47.48;62.59;;
41518;Laerm;27249;48.094;-1.690;2023-08-08T10:07:46;55.09;45.07;62.63;;
41518;Laerm;27249;48.094;-1.690;2023-08-08T10:10:11;55.98;49.69;64.44;;
41518;Laerm;27249;48.094;-1.690;2023-08-08T10:12:37;55.00;46.18;63.52;;
41518;Laerm;27249;48.094;-1.690;2023-08-08T10:15:04;54.89;48.90;60.56;;
41518;Laerm;27249;48.094;-1.690;2023-08-08T10:17:34;54.93;47.21;64.02;;
41518;Laerm;27249;48.094;-1.690;2023-08-08T10:19:59;54.61;45.63;67.96;;
41518;Laerm;27249;48.094;-1.690;2023-08-08T10:22:34;55.96;49.94;65.22;;
41518;Laerm;27249;48.094;-1.690;2023-08-08T10:24:59;54.38;45.60;65.84;;
41518;Laerm;27249;48.094;-1.690;2023-08-08T10:27:30;57.41;49.24;72.46;;
41518;Laerm;27249;48.094;-1.690;2023-08-08T10:30:00;55.05;45.63;67.73;;
41518;Laerm;27249;48.094;-1.690;2023-08-08T10:32:26;55.30;47.91;66.63;;
41518;Laerm;27249;48.094;-1.690;2023-08-08T10:34:51;56.56;48.40;70.69;;
41518;Laerm;27249;48.094;-1.690;2023-08-08T10:37:19;65.19;48.48;85.37;;
41518;Laerm;27249;48.094;-1.690;2023-08-08T10:39:55;54.66;44.11;64.39;;
41518;Laerm;27249;48.094;-1.690;2023-08-08T10:42:23;54.90;47.55;66.45;;
41518;Laerm;27249;48.094;-1.690;2023-08-08T10:44:52;55.58;47.40;67.76;;
41518;Laerm;27249;48.094;-1.690;2023-08-08T10:47:36;55.32;45.66;73.64;;
41518;Laerm;27249;48.094;-1.690;2023-08-08T10:52:31;53.26;44.27;66.59;;
41518;Laerm;27249;48.094;-1.690;2023-08-08T10:54:57;55.28;45.42;67.91;;
41518;Laerm;27249;48.094;-1.690;2023-08-08T10:57:25;54.04;44.80;62.96;;
41518;Laerm;27249;48.094;-1.690;2023-08-08T10:59:51;54.75;44.54;63.93;;
41518;Laerm;27249;48.094;-1.690;2023-08-08T11:02:16;53.03;43.94;62.24;;
41518;Laerm;27249;48.094;-1.690;2023-08-08T11:04:43;56.36;43.99;72.73;;
41518;Laerm;27249;48.094;-1.690;2023-08-08T11:07:08;54.34;46.38;62.98;;
41518;Laerm;27249;48.094;-1.690;2023-08-08T11:09:34;53.42;44.87;60.63;;
41518;Laerm;27249;48.094;-1.690;2023-08-08T11:12:00;53.15;44.58;61.25;;
41518;Laerm;27249;48.094;-1.690;2023-08-08T11:14:25;54.71;46.89;64.11;;
41518;Laerm;27249;48.094;-1.690;2023-08-08T11:16:51;53.87;46.91;60.89;;
41518;Laerm;27249;48.094;-1.690;2023-08-08T11:19:17;52.39;44.58;61.50;;
41518;Laerm;27249;48.094;-1.690;2023-08-08T11:21:44;54.16;44.15;60.83;;
41518;Laerm;27249;48.094;-1.690;2023-08-08T11:24:11;56.83;44.62;65.45;;
41518;Laerm;27249;48.094;-1.690;2023-08-08T11:26:37;57.57;45.72;69.43;;
41518;Laerm;27249;48.094;-1.690;2023-08-08T11:29:03;58.27;53.49;69.93;;
41518;Laerm;27249;48.094;-1.690;2023-08-08T11:31:29;57.88;51.07;69.39;;
41518;Laerm;27249;48.094;-1.690;2023-08-08T11:33:55;58.21;53.69;77.47;;
41518;Laerm;27249;48.094;-1.690;2023-08-08T11:36:21;57.50;48.05;69.73;;
41518;Laerm;27249;48.094;-1.690;2023-08-08T11:38:47;53.63;45.20;65.70;;
41518;Laerm;27249;48.094;-1.690;2023-08-08T11:41:13;56.76;48.60;66.13;;
41518;Laerm;27249;48.094;-1.690;2023-08-08T11:43:39;58.75;53.97;79.45;;
41518;Laerm;27249;48.094;-1.690;2023-08-08T11:46:12;58.18;50.45;73.05;;
41518;Laerm;27249;48.094;-1.690;2023-08-08T11:48:37;58.08;46.28;66.03;;
41518;Laerm;27249;48.094;-1.690;2023-08-08T11:51:06;58.90;47.61;71.59;;
41518;Laerm;27249;48.094;-1.690;2023-08-08T11:53:31;54.77;48.29;65.39;;
41518;Laerm;27249;48.094;-1.690;2023-08-08T11:55:57;54.11;47.14;60.98;;
41518;Laerm;27249;48.094;-1.690;2023-08-08T11:58:24;56.36;47.95;64.79;;
41518;Laerm;27249;48.094;-1.690;2023-08-08T12:00:49;55.22;46.38;66.51;;
41518;Laerm;27249;48.094;-1.690;2023-08-08T12:03:15;55.58;45.77;68.46;;
41518;Laerm;27249;48.094;-1.690;2023-08-08T12:05:44;60.41;50.85;76.45;;
41518;Laerm;27249;48.094;-1.690;2023-08-08T12:08:10;56.28;46.52;66.33;;
41518;Laerm;27249;48.094;-1.690;2023-08-08T12:10:35;53.01;45.91;62.23;;
41518;Laerm;27249;48.094;-1.690;2023-08-08T12:13:00;54.98;47.46;62.44;;
41518;Laerm;27249;48.094;-1.690;2023-08-08T12:15:29;54.66;45.94;65.48;;
41518;Laerm;27249;48.094;-1.690;2023-08-08T12:17:55;53.84;43.68;63.34;;
41518;Laerm;27249;48.094;-1.690;2023-08-08T12:20:21;52.89;43.90;61.11;;
41518;Laerm;27249;48.094;-1.690;2023-08-08T12:22:46;54.58;46.30;62.45;;
41518;Laerm;27249;48.094;-1.690;2023-08-08T12:25:12;55.43;49.70;66.91;;
41518;Laerm;27249;48.094;-1.690;2023-08-08T12:27:38;56.80;49.85;63.41;;
41518;Laerm;27249;48.094;-1.690;2023-08-08T12:30:04;55.97;50.88;63.66;;
41518;Laerm;27249;48.094;-1.690;2023-08-08T12:32:29;56.47;51.37;63.94;;
41518;Laerm;27249;48.094;-1.690;2023-08-08T12:34:56;57.29;52.28;65.18;;
41518;Laerm;27249;48.094;-1.690;2023-08-08T12:37:22;55.79;51.17;63.01;;
41518;Laerm;27249;48.094;-1.690;2023-08-08T12:39:48;57.22;52.19;65.68;;
41518;Laerm;27249;48.094;-1.690;2023-08-08T12:42:13;57.60;51.49;68.74;;
41518;Laerm;27249;48.094;-1.690;2023-08-08T12:44:39;55.40;45.23;62.98;;
41518;Laerm;27249;48.094;-1.690;2023-08-08T12:47:04;55.39;48.16;76.00;;
41518;Laerm;27249;48.094;-1.690;2023-08-08T12:49:29;54.92;44.94;62.56;;
41518;Laerm;27249;48.094;-1.690;2023-08-08T12:51:55;57.79;44.51;72.93;;
41518;Laerm;27249;48.094;-1.690;2023-08-08T12:54:21;56.81;48.12;66.99;;
41518;Laerm;27249;48.094;-1.690;2023-08-08T12:56:46;53.85;45.36;61.72;;
41518;Laerm;27249;48.094;-1.690;2023-08-08T12:59:11;55.12;48.98;62.97;;
41518;Laerm;27249;48.094;-1.690;2023-08-08T13:04:22;58.35;48.74;70.12;;
41518;Laerm;27249;48.094;-1.690;2023-08-08T13:06:48;61.69;46.40;75.63;;
41518;Laerm;27249;48.094;-1.690;2023-08-08T13:09:13;54.57;47.44;63.48;;
41518;Laerm;27249;48.094;-1.690;2023-08-08T13:11:39;54.54;45.36;64.38;;
41518;Laerm;27249;48.094;-1.690;2023-08-08T13:14:04;55.54;49.03;62.64;;
41518;Laerm;27249;48.094;-1.690;2023-08-08T13:16:30;54.28;44.58;64.05;;
41518;Laerm;27249;48.094;-1.690;2023-08-08T13:18:55;56.50;48.08;67.77;;
41518;Laerm;27249;48.094;-1.690;2023-08-08T13:21:20;54.72;48.54;61.85;;
41518;Laerm;27249;48.094;-1.690;2023-08-08T13:23:45;55.07;47.90;66.61;;
41518;Laerm;27249;48.094;-1.690;2023-08-08T13:26:11;54.08;46.05;72.39;;
41518;Laerm;27249;48.094;-1.690;2023-08-08T13:28:36;54.82;48.15;63.25;;
41518;Laerm;27249;48.094;-1.690;2023-08-08T13:31:03;56.09;46.95;66.47;;